Time;durP1;ratioP1;P1;durP2;ratioP2;P2;SDS_P1;SDS_P2;PMS_P1;PMS_P2;Temp;Humidity;BMP_temperature;BMP_pressure;BME280_temperature;BME280_humidity;BME280_pressure;Samples;Min_cycle;Max_cycle;Signal;HPM_P1;HPM_P2
2023/04/12 00:00:32;;;;;;;4.38;1.83;;;;;;;6.91;100.00;100448.00;4955313;28;20681;-73
2023/04/12 00:03:01;;;;;;;3.63;1.98;;;;;;;6.95;100.00;100439.09;4958213;28;20132;-73
2023/04/12 00:05:29;;;;;;;5.78;2.10;;;;;;;6.99;100.00;100440.72;4975155;28;20043;-71
2023/04/12 00:07:55;;;;;;;4.13;2.15;;;;;;;7.03;100.00;100428.28;4946121;28;20046;-73
2023/04/12 00:10:21;;;;;;;8.05;2.30;;;;;;;7.08;100.00;100426.31;4969515;28;20481;-73
2023/04/12 00:12:48;;;;;;;4.72;2.30;;;;;;;7.09;100.00;100422.81;4945382;28;20094;-73
2023/04/12 00:15:14;;;;;;;5.53;2.05;;;;;;;7.11;100.00;100414.81;4952814;28;20027;-73
2023/04/12 00:17:40;;;;;;;5.50;1.98;;;;;;;7.12;100.00;100414.78;4983484;28;20030;-73
2023/04/12 00:20:11;;;;;;;5.65;1.80;;;;;;;7.11;100.00;100410.44;4933907;28;20176;-73
2023/04/12 00:22:43;;;;;;;5.28;1.83;;;;;;;7.10;100.00;100402.56;4938473;28;20035;-73
2023/04/12 00:25:09;;;;;;;4.50;2.05;;;;;;;7.09;100.00;100393.84;4929226;28;20984;-73
2023/04/12 00:27:34;;;;;;;4.05;1.88;;;;;;;7.07;100.00;100395.66;4945357;28;21894;-73
2023/04/12 00:30:01;;;;;;;4.90;1.90;;;;;;;7.07;100.00;100377.22;4941714;28;20307;-73
2023/04/12 00:32:27;;;;;;;4.80;1.85;;;;;;;7.07;100.00;100372.84;4934913;28;20097;-73
2023/04/12 00:34:52;;;;;;;6.45;2.15;;;;;;;7.09;100.00;100366.66;4932808;28;20742;-73
2023/04/12 00:37:18;;;;;;;3.25;1.65;;;;;;;7.08;100.00;100363.13;4944284;28;20219;-73
2023/04/12 00:39:43;;;;;;;4.35;1.85;;;;;;;7.08;100.00;100357.88;4943944;28;21169;-73
2023/04/12 00:42:09;;;;;;;4.15;1.90;;;;;;;7.07;100.00;100350.91;4943486;28;20058;-73
2023/04/12 00:44:37;;;;;;;5.80;1.58;;;;;;;7.06;100.00;100343.94;4966644;28;20062;-74
2023/04/12 00:47:04;;;;;;;8.40;1.83;;;;;;;7.06;100.00;100338.66;4942484;28;20436;-73
2023/04/12 00:49:30;;;;;;;3.80;1.70;;;;;;;7.06;100.00;100330.75;4950901;28;20033;-73
2023/04/12 00:52:02;;;;;;;4.63;1.80;;;;;;;7.03;100.00;100323.00;4946814;28;20264;-73
2023/04/12 00:54:29;;;;;;;4.13;1.90;;;;;;;7.03;100.00;100315.09;4961212;28;20053;-73
2023/04/12 00:56:56;;;;;;;3.33;1.88;;;;;;;7.03;100.00;100308.03;4973792;28;20027;-73
2023/04/12 00:59:22;;;;;;;3.65;1.63;;;;;;;7.02;100.00;100306.34;4964297;28;20086;-74
2023/04/12 01:01:48;;;;;;;5.60;1.85;;;;;;;7.02;100.00;100306.34;4943507;28;20100;-74
2023/04/12 01:04:14;;;;;;;5.35;2.00;;;;;;;7.03;100.00;100291.41;4946383;28;20046;-74
2023/04/12 01:06:45;;;;;;;4.85;1.88;;;;;;;7.01;100.00;100278.31;4951622;28;20470;-73
2023/04/12 01:09:42;;;;;;;4.05;1.45;;;;;;;7.00;100.00;100270.47;4962997;28;20037;-72
2023/04/12 01:12:20;;;;;;;4.10;1.88;;;;;;;7.00;100.00;100265.19;4953831;28;20061;-72
2023/04/12 01:14:55;;;;;;;2.42;1.75;;;;;;;6.98;100.00;100253.88;4970101;28;20034;-73
2023/04/12 01:17:23;;;;;;;2.80;1.58;;;;;;;6.98;100.00;100257.34;4963729;28;20049;-73
2023/04/12 01:20:12;;;;;;;5.85;1.85;;;;;;;6.97;100.00;100249.53;4971164;28;20046;-72
2023/04/12 01:22:46;;;;;;;4.03;2.08;;;;;;;6.93;100.00;100239.13;4951927;28;21925;-72
2023/04/12 01:25:38;;;;;;;2.75;1.60;;;;;;;6.92;100.00;100240.03;4971927;28;20322;-72
2023/04/12 01:28:06;;;;;;;6.13;2.17;;;;;;;6.88;100.00;100230.56;4968484;28;21132;-73
2023/04/12 01:30:32;;;;;;;4.13;1.67;;;;;;;6.87;100.00;100223.56;4972607;28;20057;-72
2023/04/12 01:33:04;;;;;;;5.43;1.92;;;;;;;6.87;100.00;100212.22;4985240;28;20035;-72
2023/04/12 01:35:31;;;;;;;4.22;1.88;;;;;;;6.84;100.00;100202.66;4982005;28;20040;-72
2023/04/12 01:37:58;;;;;;;3.22;2.00;;;;;;;6.83;100.00;100193.06;4941163;28;20038;-73
2023/04/12 01:40:26;;;;;;;1.60;1.50;;;;;;;6.82;100.00;100186.09;4942474;28;20064;-72
2023/04/12 01:43:03;;;;;;;5.10;1.85;;;;;;;6.82;100.00;100183.47;4958847;28;20240;-73
2023/04/12 01:45:29;;;;;;;5.45;1.90;;;;;;;6.83;100.00;100169.38;4954996;28;20030;-73
2023/04/12 01:47:54;;;;;;;4.97;1.73;;;;;;;6.82;100.00;100153.63;4935118;28;20053;-73
2023/04/12 01:50:22;;;;;;;3.80;1.63;;;;;;;6.82;100.00;100143.97;4955364;28;20039;-72
2023/04/12 01:53:03;;;;;;;3.25;1.50;;;;;;;6.82;100.00;100145.75;4942256;28;20340;-72
2023/04/12 01:55:30;;;;;;;5.00;1.83;;;;;;;6.81;100.00;100134.34;4953355;28;20089;-73
2023/04/12 01:57:56;;;;;;;6.35;1.52;;;;;;;6.81;100.00;100139.63;4952093;28;22060;-73
2023/04/12 02:00:21;;;;;;;5.43;2.42;;;;;;;6.82;100.00;100138.72;4933664;28;20144;-73
2023/04/12 02:02:47;;;;;;;4.93;1.77;;;;;;;6.82;100.00;100146.63;4931996;28;20136;-73
2023/04/12 02:05:13;;;;;;;5.43;1.70;;;;;;;6.82;100.00;100135.22;4955873;28;20172;-73
2023/04/12 02:07:39;;;;;;;4.85;1.80;;;;;;;6.80;100.00;100124.75;4951874;28;20974;-73
2023/04/12 02:10:05;;;;;;;3.97;1.45;;;;;;;6.80;100.00;100122.13;4955258;28;20103;-72
2023/04/12 02:12:31;;;;;;;2.78;1.65;;;;;;;6.78;100.00;100118.72;4953285;28;20047;-72
2023/04/12 02:14:57;;;;;;;2.63;1.42;;;;;;;6.78;100.00;100108.19;4954907;28;20042;-72
2023/04/12 02:17:22;;;;;;;4.97;1.58;;;;;;;6.78;100.00;100106.41;4923771;28;20039;-72
2023/04/12 02:19:48;;;;;;;2.85;1.40;;;;;;;6.78;100.00;100103.78;4933893;28;20062;-73
2023/04/12 02:22:13;;;;;;;2.38;1.50;;;;;;;6.79;100.00;100089.72;4952901;28;20046;-73
2023/04/12 02:24:39;;;;;;;5.05;1.63;;;;;;;6.79;100.00;100086.22;4954005;28;21209;-74
2023/04/12 02:27:04;;;;;;;2.10;1.60;;;;;;;6.80;100.00;100077.41;4955950;28;20050;-74
2023/04/12 02:29:30;;;;;;;5.97;2.13;;;;;;;6.80;100.00;100069.50;4953914;28;20513;-72
2023/04/12 02:31:56;;;;;;;5.57;1.88;;;;;;;6.80;100.00;100064.22;4954111;28;20525;-73
2023/04/12 02:34:21;;;;;;;5.72;2.00;;;;;;;6.81;100.00;100052.78;4939031;28;20106;-73
2023/04/12 02:36:48;;;;;;;4.78;1.42;;;;;;;6.80;100.00;100043.19;4955652;28;20046;-74
2023/04/12 02:39:17;;;;;;;3.78;1.50;;;;;;;6.81;100.00;100038.78;4953819;28;20038;-73
2023/04/12 02:41:43;;;;;;;3.58;1.42;;;;;;;6.81;100.00;100029.09;4952340;28;20681;-73
2023/04/12 02:44:08;;;;;;;2.97;1.88;;;;;;;6.82;100.00;100027.34;4953500;28;20039;-73
2023/04/12 02:46:34;;;;;;;3.55;1.23;;;;;;;6.82;100.00;100020.31;4953473;28;20380;-73
2023/04/12 02:48:59;;;;;;;2.22;1.65;;;;;;;6.81;100.00;100013.31;4955633;28;20112;-72
2023/04/12 02:51:25;;;;;;;3.10;1.63;;;;;;;6.83;100.00;100011.50;4921206;28;20038;-72
2023/04/12 02:53:51;;;;;;;3.08;1.73;;;;;;;6.82;100.00;99996.63;4958405;28;20074;-73
2023/04/12 02:56:17;;;;;;;3.97;1.80;;;;;;;6.82;100.00;99996.63;4958426;28;20536;-73
2023/04/12 03:05:35;;;;;;;2.95;1.60;;;;;;;6.81;100.00;99986.16;4951571;28;20103;-74
2023/04/12 03:08:35;;;;;;;3.03;1.45;;;;;;;6.81;100.00;99976.47;4958802;28;20042;-73
2023/04/12 03:11:10;;;;;;;3.15;1.42;;;;;;;6.81;100.00;99965.97;4961826;28;20145;-73
2023/04/12 03:13:35;;;;;;;3.45;1.58;;;;;;;6.81;100.00;99965.97;4957605;28;20038;-73
2023/04/12 03:16:22;;;;;;;4.72;2.00;;;;;;;6.79;100.00;99955.53;4928556;28;20456;-73
2023/04/12 03:18:49;;;;;;;2.63;1.83;;;;;;;6.78;100.00;99960.84;4961852;28;21025;-73
2023/04/12 03:21:15;;;;;;;5.28;1.65;;;;;;;6.77;100.00;99943.34;4962341;28;20077;-73
2023/04/12 03:23:41;;;;;;;2.33;1.50;;;;;;;6.77;100.00;99948.63;4960229;28;20080;-73
2023/04/12 03:26:07;;;;;;;2.58;1.60;;;;;;;6.74;100.00;99936.44;4963540;28;20070;-73
2023/04/12 03:29:00;;;;;;;2.00;1.60;;;;;;;6.74;100.00;99936.44;4917814;28;20232;-74
2023/04/12 03:31:26;;;;;;;4.05;1.42;;;;;;;6.74;100.00;99912.78;4917420;28;20545;-73
2023/04/12 03:33:52;;;;;;;3.78;1.83;;;;;;;6.74;100.00;99922.44;4919721;28;20047;-72
2023/04/12 03:36:22;;;;;;;3.10;1.88;;;;;;;6.73;100.00;99915.47;4921657;28;20043;-72
2023/04/12 03:38:47;;;;;;;3.08;1.80;;;;;;;6.71;100.00;99897.09;4909916;28;20055;-73
2023/04/12 03:41:14;;;;;;;3.53;2.10;;;;;;;6.71;100.00;99885.75;4908217;29;20055;-72
2023/04/12 03:43:41;;;;;;;3.10;1.70;;;;;;;6.69;100.00;99900.75;4924628;28;20055;-72
2023/04/12 03:46:07;;;;;;;3.05;1.60;;;;;;;6.66;100.00;99881.53;4908517;29;20058;-72
2023/04/12 03:48:32;;;;;;;5.15;2.20;;;;;;;6.64;100.00;99875.50;4924485;28;20055;-72
2023/04/12 03:50:58;;;;;;;2.50;1.77;;;;;;;6.63;100.00;99883.44;4905457;29;20043;-72
2023/04/12 03:53:26;;;;;;;5.30;1.90;;;;;;;6.62;100.00;99869.47;4922298;28;20066;-72
2023/04/12 03:55:52;;;;;;;5.07;2.00;;;;;;;6.60;100.00;99873.91;4921139;28;20582;-72
2023/04/12 03:58:19;;;;;;;5.35;2.17;;;;;;;6.59;100.00;99866.94;4922654;28;20110;-72
2023/04/12 04:00:45;;;;;;;5.00;2.17;;;;;;;6.56;100.00;99861.84;4917395;28;20055;-72
2023/04/12 04:03:11;;;;;;;3.00;2.22;;;;;;;6.55;100.00;99862.78;4909780;29;20043;-73
2023/04/12 04:05:36;;;;;;;4.50;2.30;;;;;;;6.55;100.00;99857.50;4928276;28;20424;-73
2023/04/12 04:08:05;;;;;;;4.82;2.53;;;;;;;6.54;100.00;99861.03;4927161;28;20054;-73
2023/04/12 04:10:31;;;;;;;7.35;2.28;;;;;;;6.52;100.00;99861.13;4925911;28;20397;-73
2023/04/12 04:12:56;;;;;;;2.55;1.98;;;;;;;6.50;100.00;99854.22;4926420;28;20028;-73
2023/04/12 04:15:24;;;;;;;5.97;3.10;;;;;;;6.49;100.00;99842.84;4905761;28;20890;-73
2023/04/12 04:17:49;;;;;;;6.00;2.67;;;;;;;6.47;100.00;99849.94;4938790;28;20039;-74
2023/04/12 04:20:16;;;;;;;6.43;2.55;;;;;;;6.46;100.00;99848.25;4926510;28;20147;-74
2023/04/12 04:22:43;;;;;;;6.00;2.38;;;;;;;6.44;100.00;99841.34;4925048;28;20046;-73
2023/04/12 04:25:09;;;;;;;4.32;1.80;;;;;;;6.42;100.00;99840.56;4926278;28;20043;-73
2023/04/12 04:27:37;;;;;;;4.43;2.08;;;;;;;6.42;100.00;99844.03;4922278;28;20285;-73
2023/04/12 04:30:04;;;;;;;3.78;1.98;;;;;;;6.41;100.00;99836.19;4939699;28;20054;-73
2023/04/12 04:32:32;;;;;;;3.40;2.17;;;;;;;6.39;100.00;99834.50;4941578;28;20043;-72
2023/04/12 04:34:58;;;;;;;4.43;1.75;;;;;;;6.38;100.00;99819.66;4921250;29;20454;-72
2023/04/12 04:37:25;;;;;;;4.10;2.15;;;;;;;6.37;100.00;99812.69;4930782;28;20479;-73
2023/04/12 04:39:50;;;;;;;3.63;1.77;;;;;;;6.37;100.00;99806.56;4929688;28;20156;-73
2023/04/12 04:42:16;;;;;;;1.92;1.70;;;;;;;6.35;100.00;99801.41;4913849;28;21109;-73
2023/04/12 04:44:42;;;;;;;2.97;1.77;;;;;;;6.34;100.00;99794.44;4933506;28;20074;-73
2023/04/12 04:47:08;;;;;;;4.72;2.08;;;;;;;6.33;100.00;99776.94;4946389;28;20079;-73
2023/04/12 04:49:36;;;;;;;3.05;1.60;;;;;;;6.32;100.00;99783.13;4942377;28;20121;-73
2023/04/12 04:52:02;;;;;;;3.70;2.00;;;;;;;6.32;100.00;99780.47;4942234;28;20258;-73
2023/04/12 04:54:27;;;;;;;5.72;2.05;;;;;;;6.32;100.00;99787.53;4963081;28;20419;-73
2023/04/12 04:56:55;;;;;;;5.60;2.17;;;;;;;6.31;100.00;99770.06;4940545;28;20061;-73
2023/04/12 04:59:32;;;;;;;6.60;2.28;;;;;;;6.31;100.00;99776.16;4934841;28;20071;-73
2023/04/12 05:01:58;;;;;;;3.45;1.80;;;;;;;6.30;100.00;99771.81;4881267;29;20055;-73
2023/04/12 05:04:23;;;;;;;4.57;2.08;;;;;;;6.30;100.00;99776.22;4899940;29;20049;-74
2023/04/12 05:06:49;;;;;;;2.17;1.85;;;;;;;6.29;100.00;99761.38;4853847;29;20168;-74
2023/04/12 05:09:30;;;;;;;4.57;2.28;;;;;;;6.30;100.00;99763.06;4890831;29;20037;-74
2023/04/12 05:11:56;;;;;;;3.30;1.83;;;;;;;6.29;100.00;99743.84;4886242;29;20501;-74
2023/04/12 05:14:21;;;;;;;3.20;2.17;;;;;;;6.28;100.00;99744.75;4876410;29;20124;-74
2023/04/12 05:16:47;;;;;;;3.53;1.60;;;;;;;6.28;100.00;99731.63;4873626;29;20144;-74
2023/04/12 05:19:12;;;;;;;3.42;2.08;;;;;;;6.27;100.00;99737.81;4874766;29;20053;-74
2023/04/12 05:21:38;;;;;;;3.40;2.20;;;;;;;6.27;100.00;99745.69;4868423;29;20064;-74
2023/04/12 05:24:03;;;;;;;2.95;2.20;;;;;;;6.27;100.00;99736.94;4867761;29;20048;-74
2023/04/12 05:26:29;;;;;;;4.60;2.40;;;;;;;6.26;100.00;99728.19;4870240;29;20045;-74
2023/04/12 05:28:54;;;;;;;5.90;2.70;;;;;;;6.24;100.00;99736.16;4873473;29;20045;-74
2023/04/12 05:31:20;;;;;;;4.95;2.92;;;;;;;6.25;100.00;99745.75;4888480;29;20052;-74
2023/04/12 05:33:48;;;;;;;5.68;2.55;;;;;;;6.25;100.00;99747.50;4965576;28;20077;-74
2023/04/12 05:36:14;;;;;;;8.05;2.72;;;;;;;6.25;100.00;99737.00;4984039;28;20030;-74
2023/04/12 05:38:43;;;;;;;5.00;3.10;;;;;;;6.23;100.00;99738.84;4968834;28;20591;-73
2023/04/12 05:41:19;;;;;;;3.75;2.90;;;;;;;6.23;100.00;99725.72;4978933;28;20157;-74
2023/04/12 05:43:45;;;;;;;5.68;3.15;;;;;;;6.22;100.00;99730.09;4984585;28;20069;-74
2023/04/12 05:46:11;;;;;;;6.43;3.13;;;;;;;6.22;100.00;99737.97;4981740;28;20050;-74
2023/04/12 05:48:41;;;;;;;8.45;3.10;;;;;;;6.22;100.00;99731.91;4988117;28;21682;-74
2023/04/12 05:51:07;;;;;;;8.65;3.38;;;;;;;6.22;100.00;99727.47;4961454;28;20058;-74
2023/04/12 05:53:35;;;;;;;7.05;3.67;;;;;;;6.22;100.00;99737.16;4946286;28;20433;-74
2023/04/12 05:56:04;;;;;;;5.55;3.67;;;;;;;6.21;100.00;99733.66;4956349;28;20466;-74
2023/04/12 05:58:33;;;;;;;6.88;3.90;;;;;;;6.21;100.00;99724.94;4960869;28;20051;-74
2023/04/12 06:00:59;;;;;;;4.22;3.53;;;;;;;6.21;100.00;99732.81;4954881;28;20047;-74
2023/04/12 06:03:25;;;;;;;5.22;3.47;;;;;;;6.23;100.00;99728.34;4960412;28;20073;-74
2023/04/12 06:05:51;;;;;;;7.82;4.13;;;;;;;6.23;100.00;99731.81;4919966;28;20055;-74
2023/04/12 06:08:17;;;;;;;8.63;4.40;;;;;;;6.25;100.00;99723.84;4951897;28;20046;-74
2023/04/12 06:10:43;;;;;;;8.77;4.60;;;;;;;6.24;100.00;99725.66;4953987;28;20051;-74
2023/04/12 06:13:08;;;;;;;8.63;4.72;;;;;;;6.24;100.00;99719.53;4954186;28;20578;-74
2023/04/12 06:15:35;;;;;;;8.10;4.53;;;;;;;6.24;100.00;99709.88;4926611;28;20054;-74
2023/04/12 06:18:00;;;;;;;7.95;4.53;;;;;;;6.25;100.00;99692.31;4928168;28;20043;-74
2023/04/12 06:20:26;;;;;;;9.57;5.38;;;;;;;6.25;100.00;99708.09;4935819;28;20805;-74
2023/04/12 06:22:51;;;;;;;13.23;6.78;;;;;;;6.25;100.00;99721.22;4924269;28;20055;-73
2023/04/12 06:25:17;;;;;;;8.40;5.15;;;;;;;6.26;100.00;99712.41;4922315;28;20043;-74
2023/04/12 06:27:43;;;;;;;12.75;5.82;;;;;;;6.27;100.00;99713.28;4916747;28;22100;-74
2023/04/12 06:30:08;;;;;;;8.45;4.88;;;;;;;6.27;100.00;99708.88;4922850;28;20035;-74
2023/04/12 06:32:34;;;;;;;6.65;4.75;;;;;;;6.29;100.00;99708.78;4923617;28;20196;-74
2023/04/12 06:35:00;;;;;;;7.63;4.75;;;;;;;6.29;100.00;99695.66;4923722;28;20039;-74
2023/04/12 06:37:25;;;;;;;9.25;5.47;;;;;;;6.29;100.00;99691.25;4919243;28;20553;-74
2023/04/12 06:39:51;;;;;;;10.73;5.47;;;;;;;6.29;100.00;99691.25;4920824;28;20106;-74
2023/04/12 06:42:17;;;;;;;8.20;5.13;;;;;;;6.29;100.00;99685.13;4920420;28;20073;-74
2023/04/12 06:44:42;;;;;;;9.48;5.18;;;;;;;6.30;100.00;99676.31;4917568;28;20399;-74
2023/04/12 06:47:08;;;;;;;9.55;5.60;;;;;;;6.30;100.00;99677.19;4919664;29;20135;-74
2023/04/12 06:49:33;;;;;;;8.35;4.70;;;;;;;6.30;100.00;99674.56;4919077;28;20114;-74
2023/04/12 06:51:59;;;;;;;7.95;4.28;;;;;;;6.31;100.00;99676.25;4931418;28;20769;-74
2023/04/12 06:54:24;;;;;;;7.13;4.45;;;;;;;6.31;100.00;99678.88;4955286;28;20109;-74
2023/04/12 06:56:50;;;;;;;7.15;3.92;;;;;;;6.33;100.00;99673.56;4957289;28;20035;-74
2023/04/12 06:59:16;;;;;;;9.38;3.92;;;;;;;6.34;100.00;99673.50;4940951;28;20045;-74
2023/04/12 07:01:42;;;;;;;7.35;4.13;;;;;;;6.36;100.00;99652.38;4955407;28;20038;-74
2023/04/12 07:04:07;;;;;;;5.32;3.22;;;;;;;6.37;100.00;99669.84;4956485;28;20039;-74
2023/04/12 07:06:33;;;;;;;4.95;3.63;;;;;;;6.39;100.00;99675.91;4961912;28;20042;-74
2023/04/12 07:08:58;;;;;;;5.13;3.33;;;;;;;6.41;100.00;99670.56;4954010;28;20437;-74
2023/04/12 07:11:24;;;;;;;6.97;3.45;;;;;;;6.41;100.00;99671.44;4959861;28;20042;-73
2023/04/12 07:13:50;;;;;;;6.53;3.97;;;;;;;6.43;100.00;99676.63;4941994;28;22161;-73
2023/04/12 07:16:16;;;;;;;5.82;3.22;;;;;;;6.42;100.00;99673.13;4938907;28;20045;-73
2023/04/12 07:18:42;;;;;;;7.07;3.42;;;;;;;6.45;100.00;99666.88;4955926;28;20453;-73
2023/04/12 07:21:07;;;;;;;5.90;3.55;;;;;;;6.44;100.00;99663.41;4956382;28;20038;-74
2023/04/12 07:23:33;;;;;;;7.60;3.88;;;;;;;6.46;100.00;99660.69;4940932;28;20042;-73
2023/04/12 07:25:59;;;;;;;5.75;3.25;;;;;;;6.48;100.00;99664.13;4936764;28;20062;-74
2023/04/12 07:28:25;;;;;;;5.35;3.70;;;;;;;6.48;100.00;99661.50;4938252;28;20073;-73
2023/04/12 07:30:50;;;;;;;6.80;3.65;;;;;;;6.50;100.00;99654.38;4940884;28;20766;-74
2023/04/12 07:33:16;;;;;;;7.05;3.83;;;;;;;6.52;100.00;99663.03;4955027;28;20092;-73
2023/04/12 07:35:41;;;;;;;9.98;4.70;;;;;;;6.56;100.00;99661.97;4958705;28;20153;-74
2023/04/12 07:38:07;;;;;;;9.63;4.72;;;;;;;6.57;100.00;99665.44;4941066;28;20043;-74
2023/04/12 07:40:32;;;;;;;13.52;6.40;;;;;;;6.60;100.00;99668.78;4960426;28;20073;-73
2023/04/12 07:42:58;;;;;;;7.43;4.13;;;;;;;6.61;100.00;99670.50;4944306;28;20104;-74
2023/04/12 07:45:23;;;;;;;7.95;4.05;;;;;;;6.64;100.00;99664.22;4957569;28;20046;-73
2023/04/12 07:47:49;;;;;;;5.13;3.47;;;;;;;6.68;100.00;99675.44;4956412;28;20145;-72
2023/04/12 07:50:15;;;;;;;5.20;3.80;;;;;;;6.70;100.00;99670.97;4953253;28;20035;-77
2023/04/12 07:52:41;;;;;;;5.65;3.40;;;;;;;6.72;100.00;99671.75;4946759;28;20049;-72
2023/04/12 07:55:08;;;;;;;6.28;4.25;;;;;;;6.74;100.00;99673.38;4937551;28;20513;-73
2023/04/12 07:57:33;;;;;;;7.55;3.60;;;;;;;6.75;100.00;99663.72;4951012;28;20211;-73
2023/04/12 07:59:59;;;;;;;6.82;4.80;;;;;;;6.75;100.00;99663.72;4933159;28;20078;-73
2023/04/12 08:02:24;;;;;;;8.40;4.43;;;;;;;6.74;100.00;99654.97;4920420;28;20101;-73
2023/04/12 08:04:51;;;;;;;5.78;3.47;;;;;;;6.76;100.00;99665.44;4952840;28;20055;-73
2023/04/12 08:07:16;;;;;;;5.82;3.22;;;;;;;6.77;100.00;99664.50;4933922;28;20209;-73
2023/04/12 08:09:42;;;;;;;7.60;4.38;;;;;;;6.80;100.00;99672.22;4950073;28;21705;-71
2023/04/12 08:12:07;;;;;;;5.18;3.47;;;;;;;6.83;100.00;99671.22;4951898;28;20042;-73
2023/04/12 08:14:33;;;;;;;6.20;3.50;;;;;;;6.85;100.00;99672.84;4953599;28;20034;-73
2023/04/12 08:16:58;;;;;;;7.57;3.67;;;;;;;6.86;100.00;99674.56;4951713;28;20038;-73
2023/04/12 08:19:24;;;;;;;5.75;3.40;;;;;;;6.86;100.00;99682.44;4948392;28;20929;-73
2023/04/12 08:21:49;;;;;;;7.38;4.03;;;;;;;6.85;100.00;99678.13;4950508;28;20077;-73
2023/04/12 08:24:15;;;;;;;11.32;5.50;;;;;;;6.83;100.00;99668.59;4935810;28;20038;-73
2023/04/12 08:26:40;;;;;;;4.60;3.47;;;;;;;6.88;100.00;99685.88;4950584;28;20050;-73
2023/04/12 08:29:06;;;;;;;5.65;3.28;;;;;;;6.97;100.00;99679.28;4952750;28;20142;-73
2023/04/12 08:31:32;;;;;;;7.97;3.30;;;;;;;7.06;100.00;99670.97;4958955;28;20492;-71
2023/04/12 08:33:58;;;;;;;5.97;3.30;;;;;;;7.22;100.00;99671.97;4958538;28;20399;-72
2023/04/12 08:36:26;;;;;;;5.55;3.75;;;;;;;7.34;100.00;99655.53;4957100;28;20490;-73
2023/04/12 08:38:54;;;;;;;7.53;3.65;;;;;;;7.48;100.00;99668.84;4955033;28;20042;-73
2023/04/12 08:41:19;;;;;;;5.93;4.03;;;;;;;7.64;100.00;99669.84;4938853;28;20960;-73
2023/04/12 08:43:46;;;;;;;8.63;3.72;;;;;;;7.75;100.00;99665.72;4936323;28;20038;-73
2023/04/12 08:46:15;;;;;;;9.10;4.47;;;;;;;7.86;100.00;99646.72;4949435;28;20030;-73
2023/04/12 08:48:44;;;;;;;8.15;3.83;;;;;;;7.97;100.00;99655.84;4952105;28;20042;-73
2023/04/12 08:51:15;;;;;;;5.35;3.75;;;;;;;8.06;100.00;99657.13;4951697;28;20640;-73
2023/04/12 08:53:40;;;;;;;7.15;4.18;;;;;;;8.15;100.00;99659.25;4949648;28;20050;-73
2023/04/12 08:56:10;;;;;;;7.05;4.10;;;;;;;8.21;100.00;99652.78;4956543;28;20038;-72
2023/04/12 08:58:38;;;;;;;7.90;3.65;;;;;;;8.28;100.00;99644.47;4959985;28;20054;-72
2023/04/12 09:01:03;;;;;;;8.02;3.92;;;;;;;8.39;100.00;99650.97;4936750;28;20712;-73
2023/04/12 09:03:30;;;;;;;7.13;4.13;;;;;;;8.48;100.00;99639.88;4938568;28;20054;-73
2023/04/12 09:05:55;;;;;;;9.18;3.90;;;;;;;8.59;100.00;99651.63;4956042;28;20038;-73
2023/04/12 09:08:21;;;;;;;12.45;4.88;;;;;;;8.62;100.00;99644.44;4951878;28;20120;-73
2023/04/12 09:10:46;;;;;;;11.55;4.32;;;;;;;8.66;100.00;99637.19;4933339;28;20697;-73
2023/04/12 09:13:12;;;;;;;13.90;3.35;;;;;;;8.67;100.00;99641.53;4952746;28;20042;-73
2023/04/12 09:15:50;;;;;;;10.63;3.80;;;;;;;8.71;100.00;99645.66;4915378;28;20042;-72
2023/04/12 09:18:15;;;;;;;11.85;3.15;;;;;;;8.82;100.00;99637.13;4954771;28;20302;-72
2023/04/12 09:20:41;;;;;;;8.32;3.30;;;;;;;9.03;100.00;99632.41;4949562;28;20054;-72
2023/04/12 09:23:25;;;;;;;11.77;2.78;;;;;;;9.36;100.00;99631.38;4947175;28;20058;-72
2023/04/12 09:25:52;;;;;;;7.05;2.90;;;;;;;9.54;100.00;99633.88;4921412;28;20057;-72
2023/04/12 09:28:28;;;;;;;8.75;2.80;;;;;;;9.52;100.00;99625.16;4956885;28;20034;-72
2023/04/12 09:30:58;;;;;;;11.45;2.78;;;;;;;9.48;100.00;99621.84;4955563;28;20675;-71
2023/04/12 09:33:38;;;;;;;9.35;1.90;;;;;;;9.52;100.00;99625.16;4933110;28;20034;-72
2023/04/12 09:36:05;;;;;;;7.30;2.00;;;;;;;9.65;100.00;99618.19;4948870;28;20034;-72
2023/04/12 09:38:31;;;;;;;8.63;2.05;;;;;;;9.73;100.00;99623.00;4916497;28;20061;-72
2023/04/12 09:41:14;;;;;;;5.40;1.58;;;;;;;9.89;100.00;99627.34;4933246;28;20646;-72
2023/04/12 09:43:40;;;;;;;4.28;1.65;;;;;;;10.21;100.00;99629.78;4954219;28;20043;-73
2023/04/12 09:46:11;;;;;;;3.92;1.30;;;;;;;10.49;100.00;99621.88;4946846;28;20043;-73
2023/04/12 09:48:40;;;;;;;8.32;1.75;;;;;;;10.66;100.00;99621.63;4916278;28;20120;-73
2023/04/12 09:51:07;;;;;;;8.80;1.67;;;;;;;10.74;100.00;99618.50;4920191;28;22088;-71
2023/04/12 09:53:34;;;;;;;6.80;1.50;;;;;;;10.86;100.00;99615.03;4947823;28;20054;-70
2023/04/12 09:56:02;;;;;;;6.50;1.45;;;;;;;11.04;100.00;99628.00;4917287;28;20049;-75
2023/04/12 09:58:28;;;;;;;3.50;1.35;;;;;;;11.12;100.00;99632.78;4931040;28;20210;-74
2023/04/12 10:00:55;;;;;;;6.43;1.35;;;;;;;11.34;100.00;99612.78;4936575;28;20042;-74
2023/04/12 10:03:20;;;;;;;6.18;1.40;;;;;;;11.46;100.00;99619.03;4936270;28;20179;-73
2023/04/12 10:05:46;;;;;;;4.40;1.67;;;;;;;11.40;100.00;99620.31;4950793;28;20505;-72
2023/04/12 10:08:12;;;;;;;4.25;1.45;;;;;;;11.40;100.00;99622.97;4950919;28;21319;-72
2023/04/12 10:10:38;;;;;;;8.68;1.40;;;;;;;11.38;100.00;99627.50;4937740;28;20030;-72
2023/04/12 10:13:04;;;;;;;8.23;1.40;;;;;;;11.31;100.00;99620.94;4933848;28;20046;-72
2023/04/12 10:15:31;;;;;;;4.30;1.98;;;;;;;11.21;100.00;99624.22;4950008;28;20049;-72
2023/04/12 10:17:57;;;;;;;7.50;1.63;;;;;;;11.10;100.00;99626.72;4951130;28;20121;-72
2023/04/12 10:20:22;;;;;;;5.80;1.38;;;;;;;10.96;100.00;99622.38;4951655;28;20053;-73
2023/04/12 10:22:49;;;;;;;6.78;1.85;;;;;;;10.81;100.00;99632.16;4949199;28;20101;-72
2023/04/12 10:25:26;;;;;;;4.97;1.67;;;;;;;10.69;100.00;99637.31;4946075;28;20148;-72
2023/04/12 10:27:52;;;;;;;5.40;1.35;;;;;;;10.58;100.00;99634.53;4932407;28;20049;-72
2023/04/12 10:30:19;;;;;;;3.53;1.35;;;;;;;10.51;100.00;99628.78;4930478;28;20042;-72
2023/04/12 10:32:45;;;;;;;7.72;1.45;;;;;;;10.59;100.00;99638.88;4951089;28;20026;-72
2023/04/12 10:35:11;;;;;;;5.18;1.48;;;;;;;10.78;100.00;99629.75;4944440;28;20121;-73
2023/04/12 10:38:02;;;;;;;6.07;1.42;;;;;;;10.92;100.00;99632.31;4934403;28;20044;-73
2023/04/12 10:40:31;;;;;;;4.88;1.17;;;;;;;11.03;100.00;99628.94;4931809;28;20723;-73
2023/04/12 10:43:21;;;;;;;8.88;1.40;;;;;;;11.16;100.00;99628.97;4939663;28;20062;-73
2023/04/12 10:45:48;;;;;;;4.57;1.63;;;;;;;11.23;100.00;99624.13;4957940;28;20054;-72
2023/04/12 10:48:36;;;;;;;5.75;1.48;;;;;;;11.19;100.00;99634.06;4936522;28;20042;-73
2023/04/12 10:51:29;;;;;;;6.03;1.58;;;;;;;11.11;100.00;99631.09;4939230;28;20048;-73
2023/04/12 10:54:07;;;;;;;7.13;1.40;;;;;;;10.97;100.00;99639.94;4955901;28;20038;-73
2023/04/12 10:56:40;;;;;;;7.53;1.33;;;;;;;10.82;100.00;99639.16;4956506;28;20129;-72
2023/04/12 10:59:10;;;;;;;6.35;1.63;;;;;;;10.68;100.00;99643.56;4938992;28;20417;-72
2023/04/12 11:01:36;;;;;;;6.00;1.15;;;;;;;10.52;100.00;99637.56;4937798;28;20046;-73
2023/04/12 11:04:15;;;;;;;7.22;1.63;;;;;;;10.51;100.00;99638.53;4933738;28;20152;-74
2023/04/12 11:07:01;;;;;;;5.80;1.58;;;;;;;10.53;100.00;99653.38;4953776;28;20534;-74
2023/04/12 11:09:33;;;;;;;5.93;1.70;;;;;;;10.61;100.00;99650.19;4950585;28;20038;-73
2023/04/12 11:12:05;;;;;;;6.63;1.38;;;;;;;10.69;100.00;99647.91;4953724;28;20540;-73
2023/04/12 11:14:35;;;;;;;7.22;1.45;;;;;;;10.73;100.00;99654.69;4955620;28;20037;-73
2023/04/12 11:17:07;;;;;;;5.15;1.60;;;;;;;10.72;100.00;99660.94;4939392;28;20042;-73
2023/04/12 11:19:34;;;;;;;4.95;1.40;;;;;;;10.68;100.00;99648.84;4956523;28;20073;-73
2023/04/12 11:22:01;;;;;;;6.25;1.35;;;;;;;10.68;100.00;99646.19;4917336;28;20540;-73
2023/04/12 11:24:27;;;;;;;6.03;1.13;;;;;;;10.79;100.00;99642.84;4940001;28;20046;-73
2023/04/12 11:26:52;;;;;;;4.38;1.00;;;;;;;10.93;100.00;99643.75;4956078;28;20042;-73
2023/04/12 11:29:25;;;;;;;7.45;1.30;;;;;;;11.07;100.00;99648.13;4954459;28;20038;-72
2023/04/12 11:31:51;;;;;;;1.58;0.95;;;;;;;11.17;100.00;99646.56;4954635;28;20077;-72
2023/04/12 11:34:17;;;;;;;5.20;1.20;;;;;;;11.11;100.00;99642.53;4920581;28;20039;-72
2023/04/12 11:36:53;;;;;;;7.68;1.10;;;;;;;11.03;100.00;99654.56;4955976;28;20702;-72
2023/04/12 11:39:20;;;;;;;6.65;1.23;;;;;;;10.92;100.00;99653.50;4940223;28;20042;-72